KEDE

Northeastern Regional Airport

Edenton, North Carolina, USA
METAR KEDE 161540Z AUTO 26010G14KT 10SM CLR 10/04 A3001 RMK AO2 T01030040
Observed Flight Rules
Nov-16 @ 15:40 UTC (25 minutes ago) Visual Flight Rules
Wind Visibility Clouds
260° at 10 knots
 Gusting to 14 knots
10 miles
  • Clear skies
Temperatures Readings
Current 10°C / 50°F
Dewpoint 4°C / 39°F
Humidity 67%
Altimeter 30.01" Hg
Pressure 1016 hPa
Elevation 6
METAR KEDE 161540Z AUTO 26010G14KT 10SM CLR 10/04 A3001 RMK AO2 T01030040
Observed Flight Rules
Nov-16 @ 15:40 UTC
(25 minutes ago)
VFR
Wind Visibility
260° at 10 knots
 Gusting to 14 knots
10 miles
Clouds
  • Clear skies
Temperature Dewpoint
10°C / 50°F 4°C / 39°F
Humidity Altimeter Pressure
67% 30.01" Hg 1016 hPa